Cape May, NJ

2:05 PM EST on February 27, 2017 (GMT -0500)
Cape May County

Weather History for KWWD - September, 2012

Change the Weather History Date:

Saturday, September 8, 2012

  Actual Average Record
Temperature  
Mean Temperature 75 °F -  
Max Temperature 84 °F 76 °F 91 °F (2016)
Min Temperature 64 °F 62 °F 51 °F (2000)
Cooling Degree Days 10    
Growing Degree Days 25 (Base 50)    
Moisture  
Dew Point 72 °F    
Average Humidity 87    
Maximum Humidity 100    
Minimum Humidity 74    
Precipitation  
Precipitation 0.02 in - - ()
Sea Level Pressure  
Sea Level Pressure 29.78 in    
Wind  
Wind Speed 11 mph (South)    
Max Wind Speed 22 mph    
Max Gust Speed 30 mph    
Visibility 10 miles    
Events      
Averages and records for this station are not official NWS values.
T = Trace of Precipitation, MM = Missing Value Source: NWS Daily Summary

Daily Weather History Graph

Daily Weather History Graph

Search for Another Location

Airport or City:

Trip Planner

Search our weather history database for the weather conditions in past years. The results will help you decide how hot, cold, wet, or windy it might be!

Date:

Astronomy

Sep. 08, 2012 Rise Set
Actual Time 6:35 AM EDT 7:18 PM EDT
Civil Twilight 6:08 AM EDT 7:45 PM EDT
Nautical Twilight 5:36 AM EDT 8:17 PM EDT
Astronomical Twilight 5:03 AM EDT 8:50 PM EDT
Moon No Moon Rise 2:11 PM EDT (9/8)
Length of Visible Light 13h 37m
Length of Day
12h 43m
Waning Gibbous, 49% of the Moon is Illuminated
Sep 8
Waning Gibbous
Sep 15
New
Sep 22
First Quarter
Sep 29
Full
Oct 8
Last Quarter

Hourly Weather History & Observations

Time (EDT) Temp. Heat Index Dew Point Humidity Pressure Visibility Wind Dir Wind Speed Gust Speed Precip Events Conditions
12:35 AM 73.4 °F - 71.6 °F 94% 29.88 in 10.0 mi SSE 5.8 mph - N/A   Clear
12:55 AM 73.4 °F - 71.6 °F 94% 29.89 in 10.0 mi SSE 6.9 mph - N/A   Clear
1:15 AM 73.4 °F - 71.6 °F 94% 29.90 in 10.0 mi South 4.6 mph - N/A   Clear
1:35 AM 73.4 °F - 71.6 °F 94% 29.90 in 10.0 mi South 6.9 mph - N/A   Partly Cloudy
1:55 AM 73.4 °F - 71.6 °F 94% 29.89 in 10.0 mi SSE 6.9 mph - N/A   Partly Cloudy
2:15 AM 73.4 °F - 71.6 °F 94% 29.88 in 10.0 mi SSE 8.1 mph - N/A   Clear
2:35 AM 73.4 °F - 73.4 °F 100% 29.87 in 10.0 mi SSE 6.9 mph - N/A   Mostly Cloudy
2:55 AM 75.2 °F - 73.4 °F 94% 29.86 in 10.0 mi SSE 10.4 mph - N/A   Overcast
3:15 AM 75.2 °F - 73.4 °F 94% 29.86 in 10.0 mi SSE 10.4 mph - N/A   Overcast
3:35 AM 75.2 °F - 73.4 °F 94% 29.85 in 10.0 mi SSE 9.2 mph - N/A   Overcast
3:55 AM 75.2 °F - 73.4 °F 94% 29.84 in 10.0 mi SSE 9.2 mph - N/A   Overcast
4:15 AM 75.2 °F - 73.4 °F 94% 29.84 in 10.0 mi SSE 10.4 mph - N/A   Overcast
4:35 AM 75.2 °F - 73.4 °F 94% 29.83 in 10.0 mi South 10.4 mph - N/A   Overcast
4:55 AM 75.2 °F - 73.4 °F 94% 29.84 in 10.0 mi South 10.4 mph - N/A   Overcast
5:15 AM 75.2 °F - 73.4 °F 94% 29.83 in 10.0 mi South 9.2 mph - N/A   Overcast
5:35 AM 75.2 °F - 73.4 °F 94% 29.84 in 10.0 mi South 10.4 mph - N/A   Overcast
5:55 AM 75.2 °F - 73.4 °F 94% 29.83 in 10.0 mi SSE 9.2 mph - N/A   Overcast
6:15 AM 75.2 °F - 73.4 °F 94% 29.83 in 10.0 mi SSE 9.2 mph - N/A   Overcast
6:35 AM 75.2 °F - 73.4 °F 94% 29.82 in 10.0 mi South 10.4 mph - N/A   Overcast
6:55 AM 75.2 °F - 73.4 °F 94% 29.83 in 10.0 mi South 13.8 mph 17.3 mph N/A   Overcast
7:15 AM 75.2 °F - 73.4 °F 94% 29.82 in 10.0 mi SSW 9.2 mph - N/A   Overcast
7:35 AM 75.2 °F - 75.2 °F 100% 29.82 in 9.0 mi SSW 6.9 mph - 0.01 in   Overcast
7:55 AM 75.2 °F - 73.4 °F 94% 29.81 in 10.0 mi SSW 11.5 mph 17.3 mph 0.01 in   Mostly Cloudy
8:15 AM 75.2 °F - 71.6 °F 89% 29.81 in 10.0 mi South 9.2 mph - N/A   Partly Cloudy
8:35 AM 75.2 °F - 73.4 °F 94% 29.80 in 10.0 mi SSE 8.1 mph - N/A   Partly Cloudy
8:55 AM 78.8 °F - 75.2 °F 89% 29.80 in 10.0 mi South 12.7 mph 16.1 mph N/A   Scattered Clouds
9:15 AM 78.8 °F - 75.2 °F 89% 29.80 in 10.0 mi South 13.8 mph 18.4 mph N/A   Overcast
9:35 AM 78.8 °F - 75.2 °F 89% 29.80 in 10.0 mi South 17.3 mph 21.9 mph N/A   Overcast
9:55 AM 78.8 °F - 75.2 °F 89% 29.79 in 10.0 mi South 13.8 mph - N/A   Overcast
10:15 AM 80.6 °F 86.2 °F 75.2 °F 84% 29.79 in - South 18.4 mph - N/A   Overcast
10:35 AM 80.6 °F 86.2 °F 75.2 °F 84% 29.77 in - South 17.3 mph 24.2 mph N/A   Overcast
10:55 AM 80.6 °F 86.2 °F 75.2 °F 84% 29.77 in - South 16.1 mph 24.2 mph N/A   Overcast
11:15 AM 80.6 °F 86.2 °F 75.2 °F 84% 29.77 in - South 18.4 mph 27.6 mph N/A   Overcast
11:35 AM 82.4 °F 89.5 °F 75.2 °F 79% 29.76 in - South 18.4 mph 28.8 mph N/A   Mostly Cloudy
11:55 AM 82.4 °F 89.5 °F 75.2 °F 79% 29.75 in - South 18.4 mph 26.5 mph N/A   Partly Cloudy
12:15 PM 80.6 °F 86.2 °F 75.2 °F 84% 29.74 in - South 17.3 mph 26.5 mph N/A   Scattered Clouds
12:35 PM 80.6 °F 86.2 °F 75.2 °F 84% 29.73 in - South 18.4 mph 25.3 mph N/A   Mostly Cloudy
12:55 PM 82.4 °F 89.5 °F 75.2 °F 79% 29.73 in - South 18.4 mph 29.9 mph N/A   Mostly Cloudy
1:15 PM 80.6 °F 86.2 °F 75.2 °F 84% 29.73 in - South 17.3 mph 25.3 mph N/A   Scattered Clouds
1:35 PM 82.4 °F 89.5 °F 75.2 °F 79% 29.72 in - South 19.6 mph 26.5 mph N/A   Mostly Cloudy
1:55 PM 82.4 °F 89.5 °F 75.2 °F 79% 29.71 in - South 21.9 mph 28.8 mph N/A   Partly Cloudy
2:15 PM 82.4 °F 89.5 °F 75.2 °F 79% 29.71 in - South 19.6 mph 26.5 mph N/A   Clear
2:35 PM 84.2 °F 92.3 °F 75.2 °F 74% 29.70 in - South 17.3 mph 26.5 mph N/A   Clear
2:55 PM 84.2 °F 92.3 °F 75.2 °F 74% 29.69 in - South 16.1 mph 24.2 mph N/A   Clear
3:15 PM 84.2 °F 92.3 °F 75.2 °F 74% 29.68 in - South 18.4 mph 27.6 mph N/A   Clear
3:35 PM 82.4 °F 89.5 °F 75.2 °F 79% 29.67 in - South 20.7 mph 26.5 mph N/A   Clear
4:15 PM 82.4 °F 89.5 °F 75.2 °F 79% 29.65 in - South 18.4 mph 24.2 mph N/A   Clear
4:35 PM 82.4 °F 89.5 °F 75.2 °F 79% 29.64 in - South 18.4 mph - N/A   Clear
4:55 PM 82.4 °F 89.5 °F 75.2 °F 79% 29.64 in - South 16.1 mph 24.2 mph N/A   Clear
5:15 PM 80.6 °F 86.2 °F 75.2 °F 84% 29.65 in - South 17.3 mph 24.2 mph N/A   Clear
5:35 PM 80.6 °F 86.2 °F 75.2 °F 84% 29.65 in - South 18.4 mph 25.3 mph N/A   Clear
5:55 PM 80.6 °F 86.2 °F 75.2 °F 84% 29.66 in - South 13.8 mph 21.9 mph N/A   Clear
6:15 PM 78.8 °F - 73.4 °F 83% 29.67 in 10.0 mi SSW 13.8 mph 21.9 mph N/A   Clear
6:35 PM 78.8 °F - 73.4 °F 83% 29.68 in 10.0 mi SSW 11.5 mph - N/A   Partly Cloudy
6:55 PM 71.6 °F - 66.2 °F 83% 29.72 in 10.0 mi NW 16.1 mph 25.3 mph N/A   Mostly Cloudy
7:15 PM 66.2 °F - 62.6 °F 88% 29.73 in 8.0 mi NW 15.0 mph 26.5 mph N/A   Overcast
7:35 PM 66.2 °F - 62.6 °F 88% 29.73 in 10.0 mi NNW 12.7 mph 21.9 mph N/A   Mostly Cloudy
7:55 PM 66.2 °F - 62.6 °F 88% 29.73 in 10.0 mi NNW 11.5 mph 16.1 mph N/A   Partly Cloudy
8:15 PM 66.2 °F - 62.6 °F 88% 29.74 in 10.0 mi North 6.9 mph - N/A   Scattered Clouds
8:35 PM 66.2 °F - 62.6 °F 88% 29.75 in 10.0 mi NNW 8.1 mph - N/A   Mostly Cloudy
8:55 PM 66.2 °F - 60.8 °F 83% 29.77 in 10.0 mi NW 5.8 mph - N/A   Mostly Cloudy
9:15 PM 68.0 °F - 62.6 °F 83% 29.79 in 10.0 mi WNW 9.2 mph 17.3 mph N/A   Overcast
9:35 PM 66.2 °F - 62.6 °F 88% 29.81 in 10.0 mi West 5.8 mph - N/A   Overcast
9:55 PM 68.0 °F - 62.6 °F 83% 29.80 in 10.0 mi NNW 5.8 mph - N/A   Mostly Cloudy
10:15 PM 66.2 °F - 62.6 °F 88% 29.81 in 10.0 mi NNW 8.1 mph - 0.01 in   Overcast
10:35 PM 66.2 °F - 62.6 °F 88% 29.80 in 10.0 mi NNW 5.8 mph - 0.01 in   Partly Cloudy
11:15 PM 66.2 °F - 62.6 °F 88% 29.80 in 10.0 mi NNW 6.9 mph - N/A   Mostly Cloudy
11:35 PM 66.2 °F - 62.6 °F 88% 29.79 in 10.0 mi North 5.8 mph - N/A   Partly Cloudy
11:55 PM 64.4 °F - 62.6 °F 94% 29.80 in 10.0 mi NNW 4.6 mph - N/A   Scattered Clouds